Taikasan — 7JYP — position and weather

sailwx.info

Track history (hours):
 
Tides and Currents Weather Stations Pressure Air Temp Water Temp Dewpoint Dewpoint Depression Visibility Wind Speed Wind Dir Waves Ship Positions

Taikasan

Last reported at 2017-Nov-14 12:51 UTC. Time now 2017-Nov-24 05:49 UTC.
Position N 34°48' E 139°11'.
Warning: this ship's position is 9 days out of date.

Length 74 m; draft 4.5 m.

Type: Tanker. MMSI: 431412000.

Date/timePositionNaut miles runAvg speedWind from/ knotsBaromVisibWave heightAir tempDewpointWater temp
2017-Nov-14 12:51N 34°48' E 139°11'811.6
2017-Nov-14 12:08N 34°54' E 139°18'1611.9
2017-Nov-14 10:47N 35°03' E 139°34'311.9
2017-Nov-14 10:30N 35°05' E 139°38'612.6
2017-Nov-14 10:00N 35°09' E 139°44'713.1
2017-Nov-14 09:30N 35°15' E 139°46'713.0
2017-Nov-14 09:00N 35°21' E 139°42'611.6
2017-Nov-14 08:30N 35°26' E 139°46'612.6
2017-Nov-14 08:00N 35°30' E 139°52'811.3
2017-Nov-14 07:20N 35°30' E 140°01'8 1.2
2017-Nov-14 00:54N 35°28' E 139°51'512.6
2017-Nov-14 00:30N 35°25' E 139°47'612.4
2017-Nov-14 00:00N 35°19' E 139°44'611.8
2017-Nov-13 23:30N 35°14' E 139°47'611.7
2017-Nov-13 22:59N 35°08' E 139°46'510.9
2017-Nov-13 22:30N 35°03' E 139°43'612.2
2017-Nov-13 22:00N 34°59' E 139°37'  
2017-Nov-10 09:08N 35°01' E 139°32'212.2
2017-Nov-10 09:00N 35°02' E 139°34'612.3
2017-Nov-10 08:30N 35°06' E 139°40'612.4
2017-Nov-10 08:00N 35°11' E 139°45'611.7
2017-Nov-10 07:30N 35°16' E 139°45'612.0
2017-Nov-10 07:00N 35°22' E 139°42'611.4
2017-Nov-10 06:30N 35°27' E 139°46'13 1.7
2017-Nov-09 22:58N 35°30' E 140°01'11 0.4
2017-Nov-08 22:07N 35°26' E 139°48'212.4
2017-Nov-08 21:57N 35°24' E 139°47'612.6
2017-Nov-08 21:30N 35°19' E 139°44'612.3
2017-Nov-08 21:00N 35°13' E 139°47'  
2017-Nov-05 13:08N 34°49' E 139°12'111.0
2017-Nov-05 13:00N 34°50' E 139°13'610.8
2017-Nov-05 12:30N 34°54' E 139°18'1311.4
2017-Nov-05 11:21N 35°01' E 139°32'410.6
2017-Nov-05 10:59N 35°03' E 139°35'612.0
2017-Nov-05 10:30N 35°07' E 139°41'612.1
2017-Nov-05 10:00N 35°11' E 139°45'611.9
2017-Nov-05 09:30N 35°17' E 139°45'612.1
2017-Nov-05 09:00N 35°23' E 139°42'612.4
2017-Nov-05 08:30N 35°28' E 139°48'3 0.5
2017-Nov-05 01:34N 35°28' E 139°52'312.1
2017-Nov-05 01:20N 35°26' E 139°49'411.7
2017-Nov-05 01:00N 35°23' E 139°46'611.3
2017-Nov-05 00:30N 35°18' E 139°45'611.1
2017-Nov-05 00:00N 35°12' E 139°47'611.9
2017-Nov-04 23:30N 35°07' E 139°46'611.6
2017-Nov-04 23:00N 35°02' E 139°41'612.2
2017-Nov-04 22:29N 34°59' E 139°34'  
Track history (hours):
 
Tides and Currents Weather Stations Pressure Air Temp Water Temp Dewpoint Dewpoint Depression Visibility Wind Speed Wind Dir Waves Ship Positions

Taikasan

Last reported at 2017-Nov-14 12:51 UTC. Time now 2017-Nov-24 05:49 UTC.
Position N 34°48' E 139°11'.
Warning: this ship's position is 9 days out of date.

Length 74 m; draft 4.5 m.

Type: Tanker. MMSI: 431412000.

Date/timePositionNaut miles runAvg speedWind from/ knotsBaromVisibWave heightAir tempDewpointWater temp
2017-Nov-14 12:51N 34°48' E 139°11'811.6
2017-Nov-14 12:08N 34°54' E 139°18'1611.9
2017-Nov-14 10:47N 35°03' E 139°34'311.9
2017-Nov-14 10:30N 35°05' E 139°38'612.6
2017-Nov-14 10:00N 35°09' E 139°44'713.1
2017-Nov-14 09:30N 35°15' E 139°46'713.0
2017-Nov-14 09:00N 35°21' E 139°42'611.6
2017-Nov-14 08:30N 35°26' E 139°46'612.6
2017-Nov-14 08:00N 35°30' E 139°52'811.3
2017-Nov-14 07:20N 35°30' E 140°01'8 1.2
2017-Nov-14 00:54N 35°28' E 139°51'512.6
2017-Nov-14 00:30N 35°25' E 139°47'612.4
2017-Nov-14 00:00N 35°19' E 139°44'611.8
2017-Nov-13 23:30N 35°14' E 139°47'611.7
2017-Nov-13 22:59N 35°08' E 139°46'510.9
2017-Nov-13 22:30N 35°03' E 139°43'612.2
2017-Nov-13 22:00N 34°59' E 139°37'  
2017-Nov-10 09:08N 35°01' E 139°32'212.2
2017-Nov-10 09:00N 35°02' E 139°34'612.3
2017-Nov-10 08:30N 35°06' E 139°40'612.4
2017-Nov-10 08:00N 35°11' E 139°45'611.7
2017-Nov-10 07:30N 35°16' E 139°45'612.0
2017-Nov-10 07:00N 35°22' E 139°42'611.4
2017-Nov-10 06:30N 35°27' E 139°46'13 1.7
2017-Nov-09 22:58N 35°30' E 140°01'11 0.4
2017-Nov-08 22:07N 35°26' E 139°48'212.4
2017-Nov-08 21:57N 35°24' E 139°47'612.6
2017-Nov-08 21:30N 35°19' E 139°44'612.3
2017-Nov-08 21:00N 35°13' E 139°47'  
2017-Nov-05 13:08N 34°49' E 139°12'111.0
2017-Nov-05 13:00N 34°50' E 139°13'610.8
2017-Nov-05 12:30N 34°54' E 139°18'1311.4
2017-Nov-05 11:21N 35°01' E 139°32'410.6
2017-Nov-05 10:59N 35°03' E 139°35'612.0
2017-Nov-05 10:30N 35°07' E 139°41'612.1
2017-Nov-05 10:00N 35°11' E 139°45'611.9
2017-Nov-05 09:30N 35°17' E 139°45'612.1
2017-Nov-05 09:00N 35°23' E 139°42'612.4
2017-Nov-05 08:30N 35°28' E 139°48'3 0.5
2017-Nov-05 01:34N 35°28' E 139°52'312.1
2017-Nov-05 01:20N 35°26' E 139°49'411.7
2017-Nov-05 01:00N 35°23' E 139°46'611.3
2017-Nov-05 00:30N 35°18' E 139°45'611.1
2017-Nov-05 00:00N 35°12' E 139°47'611.9
2017-Nov-04 23:30N 35°07' E 139°46'611.6
2017-Nov-04 23:00N 35°02' E 139°41'612.2
2017-Nov-04 22:29N 34°59' E 139°34'  

Dump ship's entire track history